Flight Track Log - Related Links

Times and Time Zones

All times are in EST time to prevent confusion due to time zone crossing. See the N510SR flight status page for this flight to view local times or setup timezone preferences in your user account.

Time Position Orientation Groundspeed Altitude Reporting Facility
EST Latitude Longitude Course Direction KTS MPH feet Rate Location/Type
Sun 09:02:02 AM 26.7283 -79.9572 North 235 270 6,800  Level Miami Center
Sun 09:03:02 AM 26.7733 -79.9094 43° Northeast 270 311 9,000 2,600 Climbing Miami Center
Sun 09:04:02 AM 26.8394 -79.8389 44° Northeast 285 328 12,000 1,650 Climbing Miami Center
Sun 09:05:02 AM 26.8914 -79.7589 54° Northeast 301 346 12,300 450 Climbing Miami Center
Sun 09:06:00 AM 27.3306 -79.8605 North  Level Estimated
Sun 09:06:02 AM 26.9514 -79.6717 52° Northeast 337 388 12,900  Level Miami Center
Sun 09:07:02 AM 27.0053 -79.5822 56° Northeast 369 425 13,900 1,767 Climbing Miami Center
Sun 09:09:02 AM 27.1450 -79.3706 53° Northeast 395 455 18,200 2,033 Climbing Miami Center
Sun 09:10:02 AM 27.2114 -79.2647 55° Northeast 408 470 20,000 1,700 Climbing Miami Center
Sun 09:11:02 AM 27.2758 -79.1656 54° Northeast 427 491 21,600 1,600 Climbing Miami Center
Sun 09:12:02 AM 27.3464 -79.0500 55° Northeast 438 504 23,200 1,650 Climbing Miami Center
Sun 09:13:02 AM 27.4278 -78.9206 55° Northeast 458 527 24,900 1,650 Climbing Miami Center
Sun 09:14:02 AM 27.5208 -78.8286 41° Northeast 434 499 26,500 1,600 Climbing Miami Center
Sun 09:15:02 AM 27.6344 -78.7719 24° Northeast 440 506 28,100 1,850 Climbing Miami Center
Sun 09:16:02 AM 27.7372 -78.7289 20° North 434 499 30,200 2,350 Climbing Miami Center
Sun 09:17:02 AM 27.8547 -78.6908 16° North 434 499 32,800 3,000 Climbing Miami Center
Sun 09:18:02 AM 27.9594 -78.6597 15° North 409 471 36,200 2,550 Climbing Miami Center
Sun 09:19:02 AM 28.0558 -78.6425 North 376 433 37,900 1,150 Climbing Miami Center
Sun 09:20:02 AM 28.1581 -78.6322 North 366 421 38,500 750 Climbing Miami Center
Sun 09:21:02 AM 28.2647 -78.6175 North 374 430 39,400 950 Climbing Miami Center
Sun 09:22:02 AM 28.3714 -78.6050 North 382 440 40,400 800 Climbing Miami Center
Sun 09:23:02 AM 28.4822 -78.5925 North 387 445 41,000 300 Climbing Miami Center
Sun 09:24:02 AM 28.5972 -78.5800 North 399 459 41,000  Level Miami Center
Sun 09:25:02 AM 28.7142 -78.5675 North 414 476 41,000  Level Miami Center
Sun 09:26:02 AM 28.8311 -78.5528 North 424 488 41,000 50 Level Miami Center
Sun 09:27:02 AM 28.9522 -78.5406 North 424 488 41,100 950 Climbing Miami Center
Sun 09:28:02 AM 29.0714 -78.5256 North 424 488 42,900 950 Climbing Miami Center
Sun 09:29:02 AM 29.1781 -78.5131 North 409 471 43,000 50 Climbing Miami Center
Sun 09:30:02 AM 29.2908 -78.5003 North 409 471 43,000  Level Miami Center
Sun 09:31:02 AM 29.4100 -78.4878 North 409 471 43,000 50 Level Miami Center
Sun 09:32:02 AM 29.5311 -78.4753 North 416 479 43,100  Climbing Miami Center
Sun 09:33:19 AM 29.6881 -78.4464 North 446 513 43,000 -44 Descending Jacksonville Center
Sun 09:34:19 AM 29.8044 -78.4336 North 404 465 43,000 50 Level Jacksonville Center
Sun 09:35:19 AM 29.9189 -78.4214 North 404 465 43,100  Climbing Jacksonville Center
Sun 09:36:19 AM 30.0353 -78.4086 North 410 472 43,000 -50 Descending Jacksonville Center
Sun 09:37:19 AM 30.1539 -78.3961 North 416 479 43,000 50 Level Jacksonville Center
Sun 09:38:19 AM 30.2514 -78.3842 North 408 470 43,100 50 Climbing Jacksonville Center
Sun 09:39:19 AM 30.3681 -78.3714 North 409 471 43,100  Level Jacksonville Center
Sun 09:40:19 AM 30.4844 -78.3589 North 409 471 43,100  Level Jacksonville Center
Sun 09:41:19 AM 30.6050 -78.3433 North 422 486 43,100  Level Jacksonville Center
Sun 09:42:19 AM 30.7192 -78.3306 North 417 480 43,100  Level Jacksonville Center
Sun 09:43:19 AM 30.8356 -78.3153 North 417 480 43,100  Level Jacksonville Center
Sun 09:44:19 AM 30.9542 -78.3025 North 422 486 43,100 -50 Level Jacksonville Center
Sun 09:45:19 AM 31.0808 -78.2889 North 422 486 43,000 -50 Descending Jacksonville Center
Sun 09:46:19 AM 31.1992 -78.2686 North 422 486 43,000  Level Jacksonville Center
Sun 09:47:19 AM 31.3153 -78.2506 North 422 486 43,000  Level Jacksonville Center
Sun 09:48:19 AM 31.4361 -78.2397 North 422 486 43,000  Level Jacksonville Center
Sun 09:49:19 AM 31.5544 -78.2242 North 422 486 43,000  Level Jacksonville Center
Sun 09:50:19 AM 31.6750 -78.2058 North 422 486 43,000  Level Jacksonville Center
Sun 09:51:19 AM 31.7956 -78.1972 North 427 491 43,000  Level Jacksonville Center
Sun 09:52:19 AM 31.9161 -78.1814 North 427 491 43,000  Level Jacksonville Center
Sun 09:53:19 AM 32.0344 -78.1656 North 427 491 43,000  Level Jacksonville Center
Sun 09:54:19 AM 32.1572 -78.1519 North 427 491 43,000  Level Jacksonville Center
Sun 09:55:19 AM 32.2797 -78.1356 North 433 498 43,000  Level Jacksonville Center
Sun 09:56:19 AM 32.4022 -78.1219 North 433 498 43,000  Level Jacksonville Center
Sun 09:57:19 AM 32.5247 -78.1056 North 439 505 43,000  Level Jacksonville Center
Sun 09:58:19 AM 32.6494 -78.0917 North 439 505 43,000  Level Jacksonville Center
Sun 09:59:19 AM 32.7719 -78.0753 North 439 505 43,000  Level Jacksonville Center
Sun 10:00:19 AM 32.8944 -78.0589 North 439 505 43,000  Level Jacksonville Center
Sun 10:01:19 AM 33.0192 -78.0447 North 439 505 43,000  Level Jacksonville Center
Sun 10:03:02 AM 33.2128 -78.0214 North 469 540 43,000  Level Washington Center
Sun 10:04:03 AM 33.3361 -78.0050 North 469 540 43,000  Level Washington Center
Sun 10:05:01 AM 33.4572 -77.9886 North 459 528 43,000  Level Washington Center
Sun 10:06:02 AM 33.5808 -77.9747 North 444 511 43,000  Level Washington Center
Sun 10:07:03 AM 33.7019 -77.9581 North 432 497 43,000  Level Washington Center
Sun 10:08:03 AM 33.8211 -77.9439 North 427 491 43,000 51 Level Washington Center
Sun 10:09:01 AM 33.9614 -77.9253 North 444 511 43,100 50 Climbing Washington Center
Sun 10:10:02 AM 34.0869 -77.9089 North 444 511 43,100  Level Washington Center
Sun 10:11:01 AM 34.2081 -77.8922 North 444 511 43,100 -50 Level Washington Center
Sun 10:12:01 AM 34.3356 -77.8781 North 433 498 43,000 -49 Descending Washington Center
Sun 10:13:03 AM 34.4567 -77.8739 North 433 498 43,000  Level Washington Center
Sun 10:14:02 AM 34.5778 -77.8722 North 433 498 43,000  Level Washington Center
Sun 10:15:02 AM 34.6989 -77.8706 North 428 493 43,000  Level Washington Center
Sun 10:16:00 AM 34.7947 -77.8708 360° North 428 493 43,000 50 Level Washington Center
Sun 10:17:01 AM 34.9369 -77.8647 North 428 493 43,100 49 Climbing Washington Center
Sun 10:18:02 AM 35.0619 -77.8631 North 428 493 43,100  Level Washington Center
Sun 10:19:02 AM 35.1853 -77.8614 North 434 499 43,100  Level Washington Center
Sun 10:20:03 AM 35.3083 -77.8572 North 440 506 43,100  Level Washington Center
Sun 10:21:01 AM 35.4314 -77.8556 North 440 506 43,100  Level Washington Center
Sun 10:22:02 AM 35.5567 -77.8542 North 440 506 43,100  Level Washington Center
Sun 10:23:02 AM 35.6819 -77.8550 360° North 440 506 43,100  Level Washington Center
Sun 10:24:03 AM 35.8050 -77.8536 North 440 506 43,100  Level Washington Center
Sun 10:25:03 AM 35.9344 -77.8494 North 440 506 43,100  Level Washington Center
Sun 10:26:02 AM 36.0575 -77.8506 360° North 440 506 43,100  Level Washington Center
Sun 10:27:02 AM 36.1850 -77.8489 North 440 506 43,100  Level Washington Center
Sun 10:28:03 AM 36.3106 -77.8217 10° North 440 506 43,100  Level Washington Center
Sun 10:29:01 AM 36.4306 -77.7683 20° North 452 520 43,100  Level Washington Center
Sun 10:30:01 AM 36.5547 -77.7122 20° North 457 526 43,100  Level Washington Center
Sun 10:31:02 AM 36.6808 -77.6561 20° North 470 541 43,100  Level Washington Center
Sun 10:32:03 AM 36.8047 -77.6022 19° North 470 541 43,100  Level Washington Center
Sun 10:33:01 AM 36.9308 -77.5458 20° North 470 541 43,100  Level Washington Center
Sun 10:34:02 AM 37.0469 -77.4628 30° Northeast 470 541 43,100  Level Washington Center
Sun 10:35:03 AM 37.1608 -77.3744 32° Northeast 475 547 43,100  Level Washington Center
Sun 10:36:03 AM 37.2808 -77.3067 24° Northeast 475 547 43,100  Level Washington Center
Sun 10:37:00 AM 37.4028 -77.2389 24° Northeast 475 547 43,100  Level Washington Center
Sun 10:38:01 AM 37.5247 -77.1681 25° Northeast 475 547 43,100  Level Washington Center
Sun 10:39:02 AM 37.6467 -77.0947 25° Northeast 475 547 43,100  Level Washington Center
Sun 10:40:02 AM 37.7664 -77.0236 25° Northeast 470 541 43,100 -248 Level Washington Center
Sun 10:41:03 AM 37.8861 -76.9494 26° Northeast 470 541 42,600 -756 Descending Washington Center
Sun 10:42:01 AM 38.0078 -76.8778 25° Northeast 470 541 41,600 -1,008 Descending Washington Center
Sun 10:43:02 AM 38.1275 -76.8058 25° Northeast 470 541 40,600 -738 Descending Washington Center
Sun 10:44:03 AM 38.2492 -76.7339 25° Northeast 470 541 40,100 -694 Descending Washington Center
Sun 10:45:03 AM 38.3581 -76.6719 24° Northeast 470 541 39,200 -1,932 Descending Washington Center
Sun 10:46:01 AM 38.4775 -76.6100 22° Northeast 465 535 36,300 -2,773 Descending Washington Center
Sun 10:47:02 AM 38.6094 -76.5375 23° Northeast 460 529 33,700 -3,100 Descending Washington Center
Sun 10:49:01 AM 38.8481 -76.4044 23° Northeast 476 548 27,000 -3,133 Descending Washington Center
Sun 10:50:02 AM 38.9653 -76.3392 23° Northeast 473 544 24,300 -1,426 Descending Washington Center
Sun 10:51:03 AM 39.0803 -76.2761 23° Northeast 460 529 24,100 -101 Descending Washington Center
Sun 10:52:01 AM 39.1850 -76.1914 32° Northeast 441 507 24,100 -50 Level Washington Center
Sun 10:53:02 AM 39.2814 -76.0794 42° Northeast 452 520 24,000 -744 Descending Washington Center
Sun 10:54:02 AM 39.3858 -75.9864 35° Northeast 452 520 22,600 -2,205 Descending Washington Center
Sun 10:56:07 AM 39.6000 -75.7833 36° Northeast 437 503 17,200 -2,482 Descending Philadelphia TRACON
Sun 10:57:13 AM 39.7167 -75.6833 33° Northeast 412 474 14,700 -2,050 Descending Philadelphia TRACON
Sun 10:58:07 AM 39.7833 -75.6000 44° Northeast 399 459 13,100 -842 Descending Philadelphia TRACON
Sun 10:59:07 AM 39.8833 -75.5333 27° Northeast 401 461 13,100  Level Philadelphia TRACON
Sun 11:00:01 AM 39.9667 -75.4500 37° Northeast 400 460 13,100  Level Philadelphia TRACON
Sun 11:01:07 AM 40.0667 -75.3500 37° Northeast 404 465 13,100  Level Philadelphia TRACON
Sun 11:02:07 AM 40.1500 -75.2667 37° Northeast 390 449 13,100 -1,154 Level Philadelphia TRACON
Sun 11:04:35 AM 40.3333 -75.1000 35° Northeast 312 359 9,100 -1,644 Descending New York TRACON
Sun 11:05:35 AM 40.3833 -75.0167 52° Northeast 306 352 7,400 -1,450 Descending New York TRACON
Sun 11:06:35 AM 40.4500 -74.9333 44° Northeast 295 339 6,200 -900 Descending New York TRACON
Sun 11:07:35 AM 40.5000 -74.8667 45° Northeast 287 330 5,600 -571 Descending New York TRACON
Sun 11:08:41 AM 40.5667 -74.8000 37° Northeast 283 326 5,000 -619 Descending New York TRACON
Sun 11:09:41 AM 40.6333 -74.7500 30° Northeast 279 321 4,300 -476 Descending New York TRACON
Sun 11:10:47 AM 40.7000 -74.7167 21° North 265 305 4,000 -143 Descending New York TRACON
Sun 11:11:47 AM 40.7667 -74.6667 30° Northeast 266 306 4,000  Level New York TRACON
Sun 11:12:47 AM 40.8333 -74.6000 37° Northeast 269 310 4,000 -48 Level New York TRACON
Sun 11:13:53 AM 40.9000 -74.5333 37° Northeast 273 314 3,900 -286 Descending New York TRACON
Sun 11:14:53 AM 40.9500 -74.4667 45° Northeast 270 311 3,400 -474 Descending New York TRACON
Sun 11:15:47 AM 40.9833 -74.4000 56° Northeast 273 314 3,000 -263 Descending New York TRACON
Sun 11:16:47 AM 41.0000 -74.3000 78° East 262 302 2,900 -400 Descending New York TRACON
Sun 11:17:47 AM 40.9833 -74.2167 105° East 249 287 2,200 -429 Descending New York TRACON
Sun 11:18:53 AM 40.9500 -74.1333 118° Southeast 191 220 2,000 -143 Descending New York TRACON
Sun 11:19:53 AM 40.9333 -74.0833 114° Southeast 169 194 1,900 -500 Descending New York TRACON
Sun 11:20:53 AM 40.9000 -74.0500 143° Southeast 162 186 1,000 -900 Descending New York TRACON

Login

Don't have an account? Register now (free) for customized features, flight alerts, and more!